Skip Navigation Links Skip Navigation Links

Current Weather

Brookhaven, Shirley, N.Y.

For information only: do not use for flight planning or navigation.
Latest weather
Observation time Saturday, January 23, 2021 9:56 PM EST
Local time Saturday, January 23, 2021 10:19 PM EST
Flight conditions Visual Meteorological Conditions
Winds
Wind direction Northwest (310°)
Wind speed 16 mph
Wind gusting to 24 mph
Visibility 10 mi.
Sky condition
Ceiling unlimited
Sky clear
Temperature 25°F
Dewpoint 4°F
Altimeter 30.12 in.Hg
Pressure change last 3 hours-0.03 in.Hg
Pressure rising more slowly
Derived measurements
Relative humidity 40%
Wind chill 12°F
Density altitude -2443 ft.
Sea-level pressure 30.12 in.Hg
Remarks
Fully automated report.
Automated weather observing station with precipitation discriminator.
METAR KHWV 240256Z AUTO 31014G21KT 10SM CLR M04/M16 A3012 RMK AO2 SLP200 T10391156 51010

Settings

Location code

InnerDrive.Weather 4.0.6770.0 Release CLR 4.0.30319.42000
Copyright ©2018 Inner Drive Technology. All rights reserved. Portions Copyright ©1986-2018 David Braverman.

Find weather

Site navigation


Skip Navigation Links

Place info

Page info

PayPal - The safer, easier way to pay online!

Return home.

Copyright ©2021 Inner Drive Technology. Purveyors of fine, hand-crafted computer software. Page printed 2021-01-24T03:19:59 UTC.